Time;durP1;ratioP1;P1;durP2;ratioP2;P2;SDS_P1;SDS_P2;PMS_P1;PMS_P2;Temp;Humidity;BMP_temperature;BMP_pressure;BME280_temperature;BME280_humidity;BME280_pressure;Samples;Min_cycle;Max_cycle;Signal;HPM_P1;HPM_P2
2021/07/12 00:00:24;;;;;;;16.17;14.57;;;16.70;99.90;;;;;;4994193;28;20025;-95
2021/07/12 00:02:50;;;;;;;16.40;14.90;;;16.60;99.90;;;;;;5004012;28;20049;-76
2021/07/12 00:05:16;;;;;;;14.35;13.15;;;16.60;99.90;;;;;;5001378;28;20097;-89
2021/07/12 00:07:42;;;;;;;16.15;14.55;;;16.60;99.90;;;;;;4997737;28;20434;-69
2021/07/12 00:10:10;;;;;;;16.58;15.02;;;16.50;99.90;;;;;;4994241;28;20427;-93
2021/07/12 00:12:37;;;;;;;16.67;15.00;;;16.50;99.90;;;;;;4973765;28;20546;-70
2021/07/12 00:15:06;;;;;;;17.88;16.20;;;16.50;99.90;;;;;;4973338;28;20388;-70
2021/07/12 00:17:31;;;;;;;15.55;14.05;;;16.50;99.90;;;;;;4974102;28;20026;-70
2021/07/12 00:19:57;;;;;;;16.58;14.98;;;16.40;99.90;;;;;;4973467;28;20034;-69
2021/07/12 00:22:22;;;;;;;16.48;14.95;;;16.40;99.90;;;;;;4974190;28;20050;-69
2021/07/12 00:24:48;;;;;;;15.77;14.27;;;16.40;99.90;;;;;;4973726;28;20497;-69
2021/07/12 00:27:14;;;;;;;15.13;13.73;;;16.30;99.90;;;;;;4974394;28;20027;-71
2021/07/12 00:29:39;;;;;;;15.90;14.40;;;16.30;99.90;;;;;;4974040;28;20034;-71
2021/07/12 00:32:05;;;;;;;15.80;14.30;;;16.30;99.90;;;;;;4973592;28;20023;-70
2021/07/12 00:34:31;;;;;;;17.13;15.50;;;16.30;99.90;;;;;;4974198;28;20475;-69
2021/07/12 00:36:56;;;;;;;15.95;14.43;;;16.20;99.90;;;;;;4971385;28;20023;-69
2021/07/12 00:39:22;;;;;;;17.73;14.77;;;16.30;99.90;;;;;;4963733;28;20042;-91
2021/07/12 00:41:48;;;;;;;16.17;14.68;;;16.30;99.90;;;;;;4961812;28;20510;-90
2021/07/12 00:44:14;;;;;;;15.43;13.93;;;16.30;99.90;;;;;;4970665;28;20038;-88
2021/07/12 00:46:40;;;;;;;16.38;14.77;;;16.30;99.90;;;;;;4960546;28;20469;-69
2021/07/12 00:49:06;;;;;;;14.93;13.50;;;16.40;99.90;;;;;;4953882;29;20038;-92
2021/07/12 00:51:31;;;;;;;15.90;14.30;;;16.40;99.90;;;;;;4954213;29;20034;-69
2021/07/12 00:53:57;;;;;;;15.75;14.07;;;16.50;99.90;;;;;;4954815;29;20376;-92
2021/07/12 00:56:23;;;;;;;15.43;13.93;;;16.50;99.90;;;;;;4955017;28;20495;-69
2021/07/12 00:58:48;;;;;;;16.10;14.50;;;16.50;99.90;;;;;;4955138;29;20031;-84
2021/07/12 01:01:14;;;;;;;15.13;13.73;;;16.50;99.90;;;;;;4954335;28;20031;-69
2021/07/12 01:03:39;;;;;;;15.35;13.85;;;16.50;99.90;;;;;;4955708;28;20042;-93
2021/07/12 01:06:06;;;;;;;15.45;13.95;;;16.50;99.90;;;;;;4960803;28;20026;-69
2021/07/12 01:08:31;;;;;;;15.85;14.15;;;16.50;99.90;;;;;;4962750;28;20014;-69
2021/07/12 01:11:18;;;;;;;14.85;13.45;;;16.40;99.90;;;;;;4972994;28;20054;-69
2021/07/12 01:14:12;;;;;;;15.70;14.13;;;16.40;99.90;;;;;;4969277;28;20110;-71
2021/07/12 01:16:54;;;;;;;16.05;14.55;;;16.40;99.90;;;;;;4974138;28;20031;-69
2021/07/12 01:19:50;;;;;;;;;;;16.40;99.90;;;;;;4986342;28;20019;-82
2021/07/12 01:22:47;;;;;;;16.85;15.18;;;16.40;99.90;;;;;;4992684;28;20350;-94
2021/07/12 01:25:46;;;;;;;16.00;14.57;;;16.30;99.90;;;;;;4978415;28;20117;-94
2021/07/12 01:28:39;;;;;;;15.70;14.25;;;16.30;99.90;;;;;;4980614;28;20080;-91
2021/07/12 01:31:25;;;;;;;17.25;15.60;;;16.30;99.90;;;;;;5001790;28;20045;-69
2021/07/12 01:34:12;;;;;;;16.48;14.88;;;16.20;99.90;;;;;;4981246;28;20490;-69
2021/07/12 01:36:56;;;;;;;17.13;15.43;;;16.10;99.90;;;;;;4996995;28;20026;-69
2021/07/12 01:39:32;;;;;;;16.90;15.20;;;16.10;99.90;;;;;;4997483;28;20030;-69
2021/07/12 01:42:16;;;;;;;17.85;16.00;;;16.10;99.90;;;;;;4997205;28;20029;-68
2021/07/12 01:44:58;;;;;;;18.05;16.35;;;16.10;99.90;;;;;;4997630;28;20037;-69
2021/07/12 01:47:50;;;;;;;18.50;16.77;;;16.00;99.90;;;;;;4997018;28;20033;-68
2021/07/12 01:50:25;;;;;;;18.48;16.55;;;16.10;99.90;;;;;;4998196;28;20065;-69
2021/07/12 01:53:13;;;;;;;18.58;16.88;;;16.00;99.90;;;;;;4998613;28;20030;-70
2021/07/12 01:55:57;;;;;;;17.48;15.82;;;16.00;99.90;;;;;;4979592;28;20027;-69
2021/07/12 01:58:50;;;;;;;19.63;17.40;;;15.90;99.90;;;;;;4996999;28;20023;-69
2021/07/12 02:01:19;;;;;;;18.38;16.63;;;15.90;99.90;;;;;;4993221;28;20046;-70
2021/07/12 02:03:46;;;;;;;18.90;17.00;;;15.90;99.90;;;;;;4996369;28;20489;-69
2021/07/12 02:06:12;;;;;;;18.33;16.45;;;15.80;99.90;;;;;;4996715;28;20022;-82
2021/07/12 02:08:46;;;;;;;19.30;17.38;;;15.80;99.90;;;;;;4996828;28;20045;-79
2021/07/12 02:11:16;;;;;;;18.23;16.52;;;15.80;99.90;;;;;;4978158;28;20030;-84
2021/07/12 02:13:44;;;;;;;17.40;15.80;;;15.70;99.90;;;;;;4996720;28;20506;-69
2021/07/12 02:16:11;;;;;;;20.27;18.23;;;15.70;99.90;;;;;;4979193;28;20042;-68
2021/07/12 02:18:38;;;;;;;19.33;17.27;;;15.70;99.90;;;;;;4996229;28;20073;-69
2021/07/12 02:21:04;;;;;;;19.02;17.23;;;15.70;99.90;;;;;;4978953;28;20423;-69
2021/07/12 02:23:32;;;;;;;21.50;17.98;;;15.60;99.90;;;;;;4996963;28;20082;-70
2021/07/12 02:25:58;;;;;;;20.02;18.08;;;15.70;99.90;;;;;;4996491;28;20029;-77
2021/07/12 02:28:25;;;;;;;22.10;18.92;;;15.60;99.90;;;;;;4996504;28;20057;-94
2021/07/12 02:30:53;;;;;;;19.88;17.88;;;15.70;99.90;;;;;;4978484;28;20023;-69
2021/07/12 02:33:19;;;;;;;19.58;17.67;;;15.60;99.90;;;;;;4996553;28;20027;-69
2021/07/12 02:35:45;;;;;;;19.00;17.13;;;15.70;99.90;;;;;;4996591;28;20445;-71
2021/07/12 02:38:12;;;;;;;19.92;17.95;;;15.60;99.90;;;;;;4977983;28;20019;-91
2021/07/12 02:40:38;;;;;;;20.10;18.10;;;15.60;99.90;;;;;;4979011;28;20490;-91
2021/07/12 02:43:05;;;;;;;19.48;17.58;;;15.60;99.90;;;;;;4996317;28;20030;-69
2021/07/12 02:45:31;;;;;;;19.85;17.95;;;15.60;99.90;;;;;;4979160;28;20150;-92
2021/07/12 02:47:57;;;;;;;19.35;17.35;;;15.50;99.90;;;;;;4979351;28;20471;-91
2021/07/12 02:50:24;;;;;;;20.20;18.25;;;15.50;99.90;;;;;;4995843;28;20034;-92
2021/07/12 02:53:15;;;;;;;19.38;17.20;;;15.50;99.90;;;;;;4979064;28;20018;-92
2021/07/12 02:55:41;;;;;;;19.23;17.33;;;15.50;99.90;;;;;;4996458;28;20029;-92
2021/07/12 02:58:07;;;;;;;20.92;18.92;;;15.40;99.90;;;;;;4996177;28;20258;-89
2021/07/12 03:00:33;;;;;;;20.77;18.75;;;15.40;99.90;;;;;;4995461;28;20037;-93
2021/07/12 03:02:58;;;;;;;21.10;19.08;;;15.40;99.90;;;;;;4996353;28;20026;-71
2021/07/12 03:05:24;;;;;;;20.45;18.35;;;15.30;99.90;;;;;;4995974;28;20053;-85
2021/07/12 03:08:15;;;;;;;20.88;18.73;;;15.30;99.90;;;;;;4995940;28;20026;-69
2021/07/12 03:10:57;;;;;;;20.83;18.70;;;15.30;99.90;;;;;;4976982;28;20097;-94
2021/07/12 03:13:45;;;;;;;20.00;18.10;;;15.20;99.90;;;;;;4976009;28;20405;-93
2021/07/12 03:16:13;;;;;;;20.67;18.58;;;15.20;99.90;;;;;;4976552;28;20502;-88
2021/07/12 03:18:45;;;;;;;19.13;17.08;;;15.20;99.90;;;;;;4981323;28;20427;-70
2021/07/12 03:21:11;;;;;;;19.77;17.67;;;15.20;99.90;;;;;;4995388;28;20100;-93
2021/07/12 03:23:41;;;;;;;20.48;18.02;;;15.20;99.90;;;;;;4996034;28;20030;-92
2021/07/12 03:26:09;;;;;;;19.48;17.55;;;15.20;99.90;;;;;;4995637;28;20494;-70
2021/07/12 03:28:36;;;;;;;19.75;17.75;;;15.20;99.90;;;;;;4995091;28;20045;-76
2021/07/12 03:31:03;;;;;;;20.60;18.60;;;15.20;99.90;;;;;;4978317;28;20022;-92
2021/07/12 03:33:31;;;;;;;20.08;17.98;;;15.20;99.90;;;;;;4978150;28;20033;-87
2021/07/12 03:35:58;;;;;;;21.80;18.67;;;15.20;99.90;;;;;;4977918;28;20116;-69
2021/07/12 03:38:24;;;;;;;19.65;17.85;;;15.20;99.90;;;;;;4994604;28;20026;-69
2021/07/12 03:40:51;;;;;;;20.40;18.30;;;15.20;99.90;;;;;;4995193;28;20038;-69
2021/07/12 03:43:17;;;;;;;19.42;17.63;;;15.20;99.90;;;;;;4976761;28;20507;-69
2021/07/12 03:45:51;;;;;;;21.08;18.77;;;15.20;99.90;;;;;;4977500;28;20026;-69
2021/07/12 03:48:17;;;;;;;19.95;18.05;;;15.20;99.90;;;;;;4993829;28;20018;-72
2021/07/12 03:50:42;;;;;;;20.98;18.48;;;15.20;99.90;;;;;;4977225;28;20041;-70
2021/07/12 03:53:08;;;;;;;19.33;17.20;;;15.20;99.90;;;;;;4977228;28;20018;-72
2021/07/12 03:55:34;;;;;;;20.98;18.75;;;15.20;99.90;;;;;;4976840;28;20022;-69
2021/07/12 03:58:00;;;;;;;20.02;17.88;;;15.20;99.90;;;;;;4994920;28;20022;-70
2021/07/12 04:00:29;;;;;;;21.98;18.92;;;15.30;99.90;;;;;;4993969;28;20030;-72
2021/07/12 04:02:54;;;;;;;20.52;18.48;;;15.30;99.90;;;;;;4994122;28;20024;-69
2021/07/12 04:05:24;;;;;;;19.20;17.40;;;15.30;99.90;;;;;;4976966;28;20128;-68
2021/07/12 04:07:51;;;;;;;21.10;19.10;;;15.30;99.90;;;;;;4977226;28;20025;-77
2021/07/12 04:10:18;;;;;;;19.95;17.95;;;15.30;99.90;;;;;;4993327;28;20431;-69
2021/07/12 04:12:45;;;;;;;20.15;18.13;;;15.40;99.90;;;;;;4994454;28;20046;-74
2021/07/12 04:15:12;;;;;;;21.58;19.48;;;15.40;99.90;;;;;;4994219;28;20050;-73
2021/07/12 04:17:42;;;;;;;21.65;19.42;;;15.40;99.90;;;;;;4976403;28;20375;-69
2021/07/12 04:20:09;;;;;;;22.23;20.13;;;15.40;99.90;;;;;;4993368;28;20022;-71
2021/07/12 04:22:35;;;;;;;21.27;19.25;;;15.50;99.90;;;;;;4994105;28;20030;-68
2021/07/12 04:25:01;;;;;;;20.33;18.38;;;15.50;99.90;;;;;;4976303;28;20497;-68
2021/07/12 04:27:26;;;;;;;21.88;19.60;;;15.60;99.90;;;;;;4993950;28;20518;-68
2021/07/12 04:29:52;;;;;;;21.00;19.00;;;15.60;99.90;;;;;;4993614;28;20113;-68
2021/07/12 04:32:17;;;;;;;22.17;19.98;;;15.70;99.90;;;;;;4993328;28;20489;-69
2021/07/12 04:34:43;;;;;;;22.05;19.70;;;15.80;99.90;;;;;;4994128;28;20483;-77
2021/07/12 04:37:09;;;;;;;22.73;20.33;;;15.90;99.90;;;;;;4993308;28;20415;-69
2021/07/12 04:39:35;;;;;;;21.77;19.65;;;16.00;99.90;;;;;;4993149;28;20060;-69
2021/07/12 04:42:01;;;;;;;22.10;19.83;;;16.10;99.90;;;;;;4976679;28;20117;-77
2021/07/12 04:44:26;;;;;;;21.95;19.80;;;16.20;99.90;;;;;;4992588;28;20475;-69
2021/07/12 04:46:53;;;;;;;21.73;19.50;;;16.30;99.90;;;;;;4976311;28;20022;-68
2021/07/12 04:49:19;;;;;;;23.10;20.90;;;16.30;99.90;;;;;;4975846;28;20030;-69
2021/07/12 04:51:44;;;;;;;21.35;19.15;;;16.50;99.90;;;;;;4993355;28;20068;-79
2021/07/12 04:54:11;;;;;;;21.85;19.80;;;16.50;99.90;;;;;;4993608;28;20463;-69
2021/07/12 04:56:36;;;;;;;21.88;19.67;;;16.60;99.90;;;;;;4994314;28;20045;-68
2021/07/12 04:59:09;;;;;;;20.63;18.65;;;16.70;99.90;;;;;;4993805;28;20030;-92
2021/07/12 05:01:36;;;;;;;20.98;18.98;;;16.80;99.90;;;;;;4994200;28;20041;-70
2021/07/12 05:04:04;;;;;;;21.48;19.35;;;16.80;99.90;;;;;;4993758;28;20046;-90
2021/07/12 05:06:29;;;;;;;21.38;19.27;;;16.90;99.90;;;;;;4976010;28;20026;-89
2021/07/12 05:08:56;;;;;;;20.85;18.83;;;17.00;99.90;;;;;;4993971;28;20513;-69
2021/07/12 05:11:23;;;;;;;19.77;17.88;;;17.00;99.90;;;;;;4993567;28;20030;-69
2021/07/12 05:13:49;;;;;;;19.08;17.38;;;17.10;99.90;;;;;;4992790;28;20133;-71
2021/07/12 05:16:15;;;;;;;19.60;17.80;;;17.20;99.90;;;;;;4993869;28;20149;-71
2021/07/12 05:18:41;;;;;;;20.58;18.52;;;17.30;99.90;;;;;;4994112;28;20027;-91
2021/07/12 05:21:07;;;;;;;20.05;18.20;;;17.40;99.90;;;;;;4993196;28;20026;-83
2021/07/12 05:23:33;;;;;;;21.25;19.27;;;17.50;99.90;;;;;;4993596;28;20041;-77
2021/07/12 05:25:58;;;;;;;20.40;18.55;;;17.60;99.90;;;;;;4993273;28;20030;-91
2021/07/12 05:28:24;;;;;;;21.60;19.60;;;17.70;99.90;;;;;;4993111;28;20085;-82
2021/07/12 05:30:50;;;;;;;21.70;19.60;;;17.80;99.90;;;;;;4972576;28;20041;-69
2021/07/12 05:33:15;;;;;;;21.77;19.75;;;17.80;99.90;;;;;;4985006;28;20037;-79
2021/07/12 05:35:41;;;;;;;21.08;19.17;;;18.00;99.90;;;;;;4992671;28;20096;-68
2021/07/12 05:38:07;;;;;;;22.70;20.52;;;18.10;99.90;;;;;;4968682;28;20029;-68
2021/07/12 05:40:33;;;;;;;22.02;20.00;;;18.20;99.90;;;;;;4986293;28;20034;-68
2021/07/12 05:42:59;;;;;;;20.77;18.88;;;18.20;99.90;;;;;;4977188;28;20042;-76
2021/07/12 05:45:25;;;;;;;20.85;18.90;;;18.30;99.90;;;;;;4970178;28;20093;-91
2021/07/12 05:47:50;;;;;;;22.73;20.45;;;18.30;99.90;;;;;;4993252;28;20450;-85
2021/07/12 05:50:16;;;;;;;23.55;21.25;;;18.40;99.90;;;;;;4993091;28;20032;-69
2021/07/12 05:52:42;;;;;;;24.52;22.13;;;18.40;99.90;;;;;;4993679;28;20070;-87
2021/07/12 05:55:08;;;;;;;24.60;22.00;;;18.50;99.90;;;;;;4992778;28;20077;-69
2021/07/12 05:57:34;;;;;;;23.55;21.25;;;18.50;99.90;;;;;;4993897;28;20081;-94
2021/07/12 06:00:00;;;;;;;24.55;22.17;;;18.50;99.90;;;;;;4992933;28;20022;-78
2021/07/12 06:02:26;;;;;;;23.08;20.98;;;18.60;99.90;;;;;;4984852;28;20034;-70
2021/07/12 06:04:51;;;;;;;23.85;21.35;;;18.60;99.90;;;;;;4981332;28;20458;-87
2021/07/12 06:07:17;;;;;;;25.05;22.52;;;18.70;99.90;;;;;;4993470;28;20022;-67
2021/07/12 06:09:42;;;;;;;23.45;21.20;;;18.70;99.90;;;;;;4992713;28;20107;-76
2021/07/12 06:12:08;;;;;;;25.20;22.80;;;18.80;99.90;;;;;;4992986;28;20023;-72
2021/07/12 06:14:33;;;;;;;25.67;23.17;;;18.90;99.90;;;;;;4994565;28;20050;-68
2021/07/12 06:16:59;;;;;;;24.20;21.77;;;19.00;99.90;;;;;;4994473;28;20022;-71
2021/07/12 06:19:25;;;;;;;24.75;22.33;;;19.10;99.90;;;;;;4994764;28;20022;-67
2021/07/12 06:21:51;;;;;;;24.90;22.27;;;19.20;99.90;;;;;;4995352;28;20057;-84
2021/07/12 06:24:16;;;;;;;23.52;21.08;;;19.30;99.90;;;;;;4976926;28;20546;-67
2021/07/12 06:26:42;;;;;;;26.05;23.67;;;19.30;99.90;;;;;;4995621;28;20153;-77
2021/07/12 06:29:08;;;;;;;25.00;22.48;;;19.30;99.90;;;;;;4994473;28;20113;-72
2021/07/12 06:31:33;;;;;;;22.20;20.13;;;19.40;99.90;;;;;;4994952;28;20031;-73
2021/07/12 06:33:59;;;;;;;22.80;20.70;;;19.50;99.90;;;;;;4994895;28;20030;-68
2021/07/12 06:36:25;;;;;;;22.65;20.52;;;19.50;99.90;;;;;;4989012;28;20034;-69
2021/07/12 06:38:50;;;;;;;22.40;20.33;;;19.60;99.90;;;;;;4994825;28;20550;-68
2021/07/12 06:41:16;;;;;;;23.13;20.85;;;19.60;99.90;;;;;;4977392;28;20026;-69
2021/07/12 06:43:42;;;;;;;23.27;21.15;;;19.60;99.90;;;;;;4985765;28;20019;-68
2021/07/12 06:46:07;;;;;;;22.52;20.35;;;19.70;99.90;;;;;;4974192;28;20383;-71
2021/07/12 06:48:33;;;;;;;22.02;20.02;;;19.70;99.90;;;;;;4975835;28;20054;-68
2021/07/12 06:50:58;;;;;;;21.17;19.30;;;19.90;99.90;;;;;;4975825;28;20035;-69
2021/07/12 06:53:24;;;;;;;20.80;18.90;;;20.00;99.90;;;;;;4975216;28;20490;-71
2021/07/12 06:55:49;;;;;;;22.33;20.08;;;20.10;99.90;;;;;;4975910;28;20023;-71
2021/07/12 06:58:15;;;;;;;19.60;17.70;;;20.40;99.90;;;;;;4993431;28;20497;-68
2021/07/12 07:00:41;;;;;;;20.25;18.35;;;20.60;99.90;;;;;;4994907;28;20065;-69
2021/07/12 07:03:08;;;;;;;18.02;16.38;;;20.80;99.90;;;;;;4993912;28;20030;-69
2021/07/12 07:05:34;;;;;;;19.75;17.85;;;21.10;99.90;;;;;;4993760;28;20101;-70
2021/07/12 07:08:00;;;;;;;19.50;17.55;;;21.30;99.90;;;;;;4994340;28;20113;-68
2021/07/12 07:10:25;;;;;;;19.92;17.95;;;21.40;99.90;;;;;;4994468;28;20521;-69
2021/07/12 07:12:51;;;;;;;22.88;17.48;;;21.40;99.90;;;;;;4994723;28;20049;-78
2021/07/12 07:15:16;;;;;;;17.40;15.80;;;21.30;99.90;;;;;;4994386;28;20045;-80
2021/07/12 07:17:42;;;;;;;18.02;16.42;;;21.20;99.90;;;;;;4994739;28;20614;-75
2021/07/12 07:20:09;;;;;;;17.77;16.25;;;21.20;99.90;;;;;;4976141;28;20026;-73
2021/07/12 07:22:35;;;;;;;18.77;16.80;;;21.10;99.90;;;;;;4994036;28;20491;-69
2021/07/12 07:25:00;;;;;;;18.80;16.92;;;21.00;99.90;;;;;;4994823;28;20033;-71
2021/07/12 07:27:26;;;;;;;17.48;15.88;;;21.00;99.90;;;;;;4993130;28;20022;-69
2021/07/12 07:29:52;;;;;;;17.75;16.15;;;20.90;99.90;;;;;;4993496;28;20045;-72
2021/07/12 07:32:17;;;;;;;19.60;17.65;;;21.00;99.90;;;;;;4994348;28;20036;-74
2021/07/12 07:34:44;;;;;;;18.73;17.00;;;21.00;99.90;;;;;;4976110;28;20022;-79
2021/07/12 07:37:11;;;;;;;20.50;18.50;;;21.10;99.90;;;;;;4993928;28;20022;-75
2021/07/12 07:39:38;;;;;;;18.20;16.50;;;21.20;99.90;;;;;;4994251;28;20022;-76
2021/07/12 07:42:05;;;;;;;18.50;16.80;;;21.30;99.90;;;;;;4976214;28;20443;-74
2021/07/12 07:44:31;;;;;;;17.92;16.27;;;21.40;99.90;;;;;;4993247;28;20030;-69
2021/07/12 07:46:57;;;;;;;18.02;16.45;;;21.50;99.90;;;;;;4994114;28;20026;-71
2021/07/12 07:49:22;;;;;;;18.17;16.52;;;21.60;99.90;;;;;;4993082;28;20084;-72
2021/07/12 07:51:49;;;;;;;17.73;16.08;;;21.70;99.90;;;;;;4994173;28;20137;-70
2021/07/12 07:54:14;;;;;;;17.90;16.30;;;21.70;99.90;;;;;;4993903;28;20105;-70
2021/07/12 07:56:40;;;;;;;18.25;16.45;;;21.70;99.90;;;;;;4993411;28;20053;-69
2021/07/12 07:59:06;;;;;;;18.13;16.52;;;21.70;99.90;;;;;;4984603;28;20031;-69
2021/07/12 08:01:32;;;;;;;18.33;16.58;;;21.80;99.90;;;;;;4993407;28;20026;-82
2021/07/12 08:03:58;;;;;;;16.70;15.20;;;21.80;99.90;;;;;;4993612;28;20030;-79
2021/07/12 08:06:24;;;;;;;18.00;16.30;;;21.80;99.90;;;;;;4993607;28;20077;-78
2021/07/12 08:08:49;;;;;;;19.80;18.10;;;21.90;99.90;;;;;;4992363;28;20062;-72
2021/07/12 08:11:15;;;;;;;17.45;15.85;;;21.90;99.90;;;;;;4975496;28;20116;-70
2021/07/12 08:13:41;;;;;;;16.52;14.95;;;21.90;99.90;;;;;;4975850;28;20050;-73
2021/07/12 08:16:07;;;;;;;15.55;14.02;;;22.00;99.90;;;;;;4992796;28;20023;-74
2021/07/12 08:18:33;;;;;;;12.35;11.15;;;22.10;99.90;;;;;;4993930;28;20105;-75
2021/07/12 08:20:58;;;;;;;15.05;13.75;;;22.20;99.90;;;;;;4992892;28;20031;-81
2021/07/12 08:23:26;;;;;;;14.60;13.18;;;22.30;99.90;;;;;;4992763;28;20038;-81
2021/07/12 08:25:52;;;;;;;14.60;13.18;;;22.30;99.90;;;;;;4975917;28;20050;-72
2021/07/12 08:28:18;;;;;;;16.80;15.30;;;22.40;99.90;;;;;;4992991;28;20061;-69
2021/07/12 08:30:44;;;;;;;15.23;13.73;;;22.50;99.90;;;;;;4991762;28;20034;-85
2021/07/12 08:33:10;;;;;;;14.23;12.93;;;22.50;99.90;;;;;;4992629;28;20034;-86
2021/07/12 08:35:36;;;;;;;12.80;11.60;;;22.60;99.90;;;;;;4992749;28;20030;-81
2021/07/12 08:38:03;;;;;;;11.25;10.10;;;22.70;99.90;;;;;;4992046;28;20026;-71
2021/07/12 08:40:30;;;;;;;13.73;12.13;;;22.70;99.90;;;;;;4999145;28;20065;-75
2021/07/12 08:42:57;;;;;;;13.23;11.80;;;22.70;99.90;;;;;;5012384;28;20088;-69
2021/07/12 08:45:24;;;;;;;12.70;11.50;;;22.80;99.90;;;;;;4994397;28;20434;-70
2021/07/12 08:47:51;;;;;;;13.57;12.38;;;22.80;99.90;;;;;;5012677;28;20018;-71
2021/07/12 08:50:17;;;;;;;10.68;9.68;;;22.90;99.90;;;;;;5012111;28;20042;-70
2021/07/12 08:52:45;;;;;;;14.20;12.75;;;22.90;99.90;;;;;;4990046;28;20467;-70
2021/07/12 08:55:11;;;;;;;13.02;11.63;;;22.90;99.90;;;;;;4992563;28;20027;-70
2021/07/12 08:57:37;;;;;;;11.65;10.52;;;22.90;99.90;;;;;;4991763;28;20037;-71
2021/07/12 09:00:06;;;;;;;13.90;12.20;;;23.00;99.90;;;;;;4992217;28;20113;-69
2021/07/12 09:02:34;;;;;;;14.38;12.88;;;23.00;99.90;;;;;;4991962;28;20117;-69
2021/07/12 09:05:00;;;;;;;13.13;11.93;;;23.10;99.90;;;;;;4992233;28;20026;-69
2021/07/12 09:07:29;;;;;;;11.43;9.82;;;23.10;99.90;;;;;;4992224;28;20073;-69
2021/07/12 09:10:09;;;;;;;12.77;11.35;;;23.30;99.90;;;;;;4992407;28;20038;-67
2021/07/12 09:12:45;;;;;;;10.82;9.73;;;23.40;99.90;;;;;;4990933;28;20479;-69
2021/07/12 09:15:16;;;;;;;9.98;9.07;;;23.40;99.90;;;;;;4964644;28;20487;-70
2021/07/12 09:17:54;;;;;;;13.32;9.02;;;23.50;99.90;;;;;;4977910;28;20062;-71
2021/07/12 09:20:31;;;;;;;11.48;9.30;;;23.60;99.90;;;;;;4977376;28;20027;-83
2021/07/12 09:22:58;;;;;;;13.63;12.43;;;23.70;99.90;;;;;;4973182;28;20018;-70
2021/07/12 09:25:30;;;;;;;12.57;11.27;;;23.90;99.90;;;;;;4969509;28;20030;-79
2021/07/12 09:27:56;;;;;;;14.80;13.40;;;24.20;99.90;;;;;;4991952;28;20037;-72
2021/07/12 09:30:22;;;;;;;12.15;11.05;;;24.30;99.90;;;;;;4992285;28;20031;-73
2021/07/12 09:32:51;;;;;;;13.35;12.15;;;24.20;99.90;;;;;;4974267;28;20014;-70
2021/07/12 09:35:19;;;;;;;12.73;10.88;;;24.20;99.90;;;;;;4972145;28;20081;-72
2021/07/12 09:37:56;;;;;;;11.63;10.48;;;24.30;99.90;;;;;;4974571;28;20505;-70
2021/07/12 09:40:21;;;;;;;8.38;7.55;;;24.40;99.70;;;;;;4991564;28;20058;-72
2021/07/12 09:42:49;;;;;;;8.10;7.30;;;24.60;99.90;;;;;;4992153;28;20625;-70
2021/07/12 09:45:21;;;;;;;10.52;9.00;;;24.60;99.90;;;;;;4992628;28;20014;-75
2021/07/12 09:47:49;;;;;;;12.23;10.95;;;24.50;99.90;;;;;;4978422;28;20022;-80
2021/07/12 09:50:20;;;;;;;10.02;8.85;;;24.50;99.90;;;;;;4995660;28;20034;-70
2021/07/12 09:52:51;;;;;;;11.90;10.80;;;24.70;99.80;;;;;;4996669;28;20038;-70
2021/07/12 09:55:22;;;;;;;;;;;25.00;98.90;;;;;;4978240;28;20031;-86
2021/07/12 09:58:16;;;;;;;8.85;7.72;;;25.20;98.50;;;;;;4979350;28;19933;-71
2021/07/12 10:01:03;;;;;;;10.70;9.68;;;25.30;98.60;;;;;;4996474;28;20383;-69
2021/07/12 10:03:32;;;;;;;13.18;11.95;;;25.40;98.10;;;;;;4996806;28;20030;-70
2021/07/12 10:05:58;;;;;;;9.93;8.93;;;25.40;97.00;;;;;;4996955;28;20391;-70
2021/07/12 10:08:24;;;;;;;10.52;9.48;;;25.30;96.50;;;;;;4995780;28;20011;-70
2021/07/12 10:10:50;;;;;;;8.60;7.80;;;25.40;96.40;;;;;;4996615;28;20042;-70
2021/07/12 10:13:16;;;;;;;10.15;9.10;;;25.50;97.10;;;;;;4996484;28;20042;-70
2021/07/12 10:15:41;;;;;;;9.70;8.80;;;25.50;97.40;;;;;;4996087;28;20033;-70
2021/07/12 10:18:08;;;;;;;9.02;8.23;;;25.50;97.40;;;;;;4978941;28;20487;-70
2021/07/12 10:20:34;;;;;;;7.45;6.75;;;25.60;96.90;;;;;;4996661;28;20424;-72
2021/07/12 10:23:02;;;;;;;7.38;6.65;;;25.70;97.30;;;;;;4978434;28;20018;-70
2021/07/12 10:25:31;;;;;;;7.70;7.00;;;25.80;97.40;;;;;;4978970;28;20022;-70
2021/07/12 10:27:58;;;;;;;6.28;5.68;;;25.80;97.40;;;;;;4996546;28;20019;-79
2021/07/12 10:30:35;;;;;;;8.18;7.47;;;25.90;97.30;;;;;;4995587;28;20037;-73
2021/07/12 10:33:02;;;;;;;8.18;7.38;;;26.00;96.20;;;;;;4996427;28;20105;-70
2021/07/12 10:35:40;;;;;;;7.85;7.15;;;26.10;96.10;;;;;;4996285;28;20042;-70
2021/07/12 10:38:06;;;;;;;8.30;7.20;;;25.90;96.60;;;;;;4995415;28;20470;-69
2021/07/12 10:41:00;;;;;;;6.95;6.35;;;25.70;96.60;;;;;;4979114;28;20368;-70
2021/07/12 10:43:45;;;;;;;7.00;6.38;;;25.60;96.60;;;;;;4995258;28;20088;-70
2021/07/12 10:46:29;;;;;;;9.63;8.63;;;25.50;96.70;;;;;;4995959;28;20073;-69
2021/07/12 10:49:25;;;;;;;10.10;8.55;;;25.30;96.20;;;;;;4995931;28;20061;-69
2021/07/12 10:51:51;;;;;;;8.68;7.78;;;25.10;96.20;;;;;;4995174;28;20031;-70
2021/07/12 10:54:16;;;;;;;8.63;7.82;;;25.10;96.90;;;;;;4995608;28;20156;-72
2021/07/12 10:56:54;;;;;;;8.10;6.95;;;25.30;96.10;;;;;;4978541;28;20033;-70
2021/07/12 10:59:37;;;;;;;9.55;8.43;;;25.50;95.60;;;;;;4994588;28;20057;-70
2021/07/12 11:02:09;;;;;;;7.55;6.85;;;25.60;94.80;;;;;;4995731;28;20030;-69
2021/07/12 11:04:41;;;;;;;8.25;7.45;;;25.60;96.20;;;;;;4977593;28;20092;-70
2021/07/12 11:07:14;;;;;;;7.15;6.47;;;25.50;96.00;;;;;;4995458;28;20093;-69
2021/07/12 11:09:47;;;;;;;6.88;6.28;;;25.50;96.30;;;;;;4978347;28;20423;-85
2021/07/12 11:12:29;;;;;;;6.72;6.05;;;25.60;96.30;;;;;;4977514;28;20030;-70
2021/07/12 11:15:35;;;;;;;7.22;6.53;;;25.70;97.00;;;;;;4978354;28;20057;-72
2021/07/12 11:18:22;;;;;;;8.65;7.85;;;25.90;96.40;;;;;;4917014;29;20036;-89
2021/07/12 11:20:53;;;;;;;8.07;6.22;;;25.90;95.20;;;;;;4992852;28;20470;-90
2021/07/12 11:23:35;;;;;;;;;;;26.00;95.40;;;;;;4995938;28;20109;-75
2021/07/12 11:26:01;;;;;;;7.93;7.20;;;26.10;95.50;;;;;;4995304;28;19996;-90
2021/07/12 11:28:43;;;;;;;8.10;7.30;;;26.20;94.70;;;;;;4995346;28;20053;-89
2021/07/12 11:31:36;;;;;;;7.20;6.60;;;26.30;94.20;;;;;;4995314;28;20386;-70
2021/07/12 11:34:02;;;;;;;10.18;5.88;;;26.50;95.30;;;;;;4994735;28;20038;-70
2021/07/12 11:36:29;;;;;;;7.45;6.28;;;26.70;95.80;;;;;;4995443;28;20489;-70
2021/07/12 11:38:54;;;;;;;8.65;7.85;;;26.80;95.80;;;;;;4995506;28;20028;-87
2021/07/12 11:41:24;;;;;;;7.60;6.90;;;27.00;93.90;;;;;;4994377;28;20101;-83
2021/07/12 11:44:06;;;;;;;7.03;6.32;;;27.10;94.50;;;;;;4995373;28;20045;-88
2021/07/12 11:46:32;;;;;;;7.45;6.75;;;27.30;94.80;;;;;;4977237;28;20557;-90
2021/07/12 11:49:27;;;;;;;5.68;5.15;;;27.50;94.10;;;;;;4997161;28;20030;-88
2021/07/12 11:51:55;;;;;;;6.80;6.20;;;27.70;94.80;;;;;;4992910;28;20038;-89
2021/07/12 11:54:25;;;;;;;7.53;6.68;;;27.80;94.70;;;;;;4976826;28;20022;-89
2021/07/12 11:57:11;;;;;;;6.40;5.82;;;27.90;94.40;;;;;;4995454;28;20032;-79
2021/07/12 11:59:38;;;;;;;6.78;6.07;;;28.00;94.90;;;;;;4994923;28;20015;-77
2021/07/12 12:02:08;;;;;;;6.13;5.63;;;28.10;95.40;;;;;;4976852;28;20383;-70
2021/07/12 12:04:45;;;;;;;6.10;5.60;;;28.10;94.30;;;;;;4977741;28;20018;-89
2021/07/12 12:07:18;;;;;;;5.45;4.95;;;28.10;92.90;;;;;;4994638;28;20061;-70
2021/07/12 12:09:52;;;;;;;6.10;5.50;;;28.20;93.50;;;;;;4975661;28;20042;-80
2021/07/12 12:12:32;;;;;;;6.57;5.97;;;28.20;93.70;;;;;;4994730;28;20023;-86
2021/07/12 12:14:59;;;;;;;6.55;6.05;;;28.30;93.80;;;;;;4976652;28;20114;-89
2021/07/12 12:17:26;;;;;;;7.05;6.45;;;28.30;94.00;;;;;;4994279;28;20422;-76
2021/07/12 12:20:11;;;;;;;6.68;5.88;;;28.30;93.20;;;;;;4994732;28;20025;-71
2021/07/12 12:22:51;;;;;;;6.35;5.78;;;28.40;92.90;;;;;;4994019;28;20050;-70
2021/07/12 12:25:16;;;;;;;6.25;5.65;;;28.40;92.50;;;;;;4994511;28;20431;-87
2021/07/12 12:27:42;;;;;;;10.73;6.45;;;28.40;93.70;;;;;;4994634;28;20061;-88
2021/07/12 12:30:08;;;;;;;7.75;7.00;;;28.40;93.50;;;;;;4975815;28;20100;-70
2021/07/12 12:32:34;;;;;;;6.45;5.85;;;28.30;91.80;;;;;;4995012;28;20034;-89
2021/07/12 12:35:05;;;;;;;5.90;5.32;;;28.10;92.00;;;;;;4994639;28;20022;-88
2021/07/12 12:37:40;;;;;;;8.10;5.93;;;28.10;92.70;;;;;;4993565;28;20394;-88
2021/07/12 12:40:20;;;;;;;7.95;5.75;;;27.90;92.20;;;;;;4976605;28;20034;-73
2021/07/12 12:42:48;;;;;;;6.15;5.55;;;27.80;91.90;;;;;;4993600;28;20542;-84
2021/07/12 12:45:31;;;;;;;6.15;5.60;;;27.60;93.00;;;;;;4993799;28;20027;-90